KNEW/NEW METAR and TAF weather

Enter ICAO airport designator
Station Type Date Time Source
KNEW METAR 2018/12/13 22:05 UTC NOAA

KNEW 132205Z 13011KT 10SM SCT013 SCT100 17/16 A2980 RMK AO2 T01720161


Station Type Date Time Source
KNEW Decoded METAR 2018/12/13 22:05 UTC NOAA

NEW ORLEANS LAKEFRONT AIRPORT , LA, United States (KNEW) 30-03N 90-02W 3M
Dec 13, 2018 - 05:05 PM EST / 2018.12.13 2205 UTC
Wind: from the SE (130 degrees) at 13 MPH (11 KT):0
Visibility: 10 mile(s):0
Sky conditions: partly cloudy
Temperature: 63.0 F (17.2 C)
Dew Point: 61.0 F (16.1 C)
Relative Humidity: 93%
Pressure (altimeter): 29.8 in. Hg (1009 hPa)
ob: KNEW 132205Z 13011KT 10SM SCT013 SCT100 17/16 A2980 RMK AO2 T01720161
cycle: 22

Station Type Date Time Source
KNEW TAF 2018/12/13 22:09 UTC NOAA

TAF
AMD KNEW 132207Z 1322/1418 12009KT P6SM BKN013 OVC100
FM140200 23006KT P6SM OVC020
FM140900 23009KT P6SM BKN040
FM141300 23015G25KT P6SM BKN040


Example: see airport list